createdAt,value
2018-11-06T00:02:18.495Z,98176.09
2018-11-06T00:04:51.973Z,98175.72
2018-11-06T00:07:20.282Z,98181.00
2018-11-06T00:09:48.391Z,98180.19
2018-11-06T00:23:40.949Z,98158.82
2018-11-06T00:26:09.150Z,98157.16
2018-11-06T00:28:37.289Z,98162.91
2018-11-06T00:31:05.699Z,98160.64
2018-11-06T00:33:33.856Z,98155.84
2018-11-06T00:36:01.993Z,98151.88
2018-11-06T00:38:30.116Z,98153.67
2018-11-06T00:40:58.305Z,98158.48
2018-11-06T00:43:26.465Z,98163.88
2018-11-06T00:45:54.558Z,98163.38
2018-11-06T00:48:22.714Z,98161.71
2018-11-06T00:50:50.829Z,98157.41
2018-11-06T00:53:18.967Z,98157.75
2018-11-06T00:55:47.088Z,98155.59
2018-11-06T00:58:15.327Z,98152.26
2018-11-06T01:00:43.767Z,98153.45
2018-11-06T01:03:11.932Z,98151.88
2018-11-06T01:05:40.082Z,98171.20
2018-11-06T01:08:08.203Z,98172.99
2018-11-06T01:10:36.366Z,98174.31
2018-11-06T01:13:04.772Z,98181.03
2018-11-06T01:15:32.907Z,98187.98
2018-11-06T01:18:00.983Z,98193.76
2018-11-06T01:20:29.064Z,98187.28
2018-11-06T01:22:57.134Z,98174.56
2018-11-06T01:25:25.286Z,98169.75
2018-11-06T01:27:53.429Z,98167.11
2018-11-06T01:30:21.570Z,98172.89
2018-11-06T01:32:49.716Z,98181.76
2018-11-06T01:35:18.061Z,98177.80
2018-11-06T01:37:46.783Z,98182.73
2018-11-06T01:40:16.101Z,98183.67
2018-11-06T01:42:44.883Z,98190.27
2018-11-06T01:45:14.179Z,98194.73
2018-11-06T01:47:42.451Z,98186.81
2018-11-06T01:50:13.605Z,98178.05
2018-11-06T01:52:43.008Z,98177.33
2018-11-06T01:55:11.904Z,98177.33
2018-11-06T01:57:40.268Z,98176.48
2018-11-06T02:00:11.930Z,98175.66
2018-11-06T02:02:40.200Z,98175.16
2018-11-06T02:05:09.824Z,98174.34
2018-11-06T02:07:37.976Z,98177.57
2018-11-06T02:10:06.902Z,98183.70
2018-11-06T02:12:35.820Z,98181.06
2018-11-06T02:15:04.262Z,98178.89
2018-11-06T02:17:32.357Z,98180.21
2018-11-06T02:20:00.496Z,98178.89
2018-11-06T02:22:28.624Z,98171.10
2018-11-06T02:24:56.818Z,98164.00
2018-11-06T02:27:24.933Z,98161.02
2018-11-06T02:29:53.037Z,98153.11
2018-11-06T02:32:21.160Z,98147.48
2018-11-06T02:34:49.342Z,98147.48
2018-11-06T02:37:17.610Z,98150.13
2018-11-06T02:39:45.782Z,98147.61
2018-11-06T02:42:13.887Z,98152.38
2018-11-06T02:44:42.026Z,98150.34
2018-11-06T02:47:10.418Z,98149.02
2018-11-06T02:49:38.794Z,98150.34
2018-11-06T02:52:07.558Z,98155.99
2018-11-06T02:54:35.866Z,98150.97
2018-11-06T02:57:03.982Z,98155.62
2018-11-06T02:59:32.182Z,98152.98
2018-11-06T03:02:00.309Z,98148.33
2018-11-06T03:04:28.451Z,98149.27
2018-11-06T03:06:56.565Z,98150.24
2018-11-06T03:09:24.692Z,98147.61
2018-11-06T03:11:52.782Z,98148.42
2018-11-06T03:14:20.918Z,98155.99
2018-11-06T03:16:49.103Z,98162.59
2018-11-06T03:19:17.154Z,98164.87
2018-11-06T03:21:45.237Z,98163.05
2018-11-06T03:24:13.374Z,98156.97
2018-11-06T03:26:41.507Z,98155.27
2018-11-06T03:29:10.069Z,98146.03
2018-11-06T03:31:38.206Z,98145.22
2018-11-06T03:34:06.546Z,98146.03
2018-11-06T03:36:34.806Z,98148.80
2018-11-06T03:39:03.322Z,98144.84
2018-11-06T03:41:31.434Z,98146.54
2018-11-06T03:43:59.521Z,98144.84
2018-11-06T03:46:27.634Z,98139.56
2018-11-06T03:48:55.729Z,98137.05
2018-11-06T03:51:23.818Z,98137.05
2018-11-06T03:53:51.953Z,98133.09
2018-11-06T03:56:20.065Z,98143.17
2018-11-06T03:58:48.177Z,98153.73
2018-11-06T04:01:16.341Z,98155.98
2018-11-06T04:03:44.461Z,98158.63
2018-11-06T04:06:13.486Z,98161.64
2018-11-06T04:08:41.569Z,98165.22
2018-11-06T04:11:09.701Z,98160.45
2018-11-06T04:13:37.832Z,98151.56
2018-11-06T04:16:05.948Z,98146.75
2018-11-06T04:18:34.023Z,98159.94
2018-11-06T04:21:02.097Z,98167.51
2018-11-06T04:23:30.290Z,98171.00
2018-11-06T04:25:58.361Z,98167.04
2018-11-06T04:28:26.483Z,98164.02
2018-11-06T04:30:54.556Z,98163.08
2018-11-06T04:33:22.659Z,98159.94
2018-11-06T04:35:50.724Z,98155.98
2018-11-06T04:38:18.816Z,98147.25
2018-11-06T04:40:46.861Z,98153.00
2018-11-06T04:43:15.029Z,98154.32
2018-11-06T04:45:43.083Z,98158.28
2018-11-06T04:48:11.178Z,98164.02
2018-11-06T04:50:39.259Z,98153.85
2018-11-06T04:53:07.353Z,98141.98
2018-11-06T04:55:35.437Z,98138.97
2018-11-06T04:58:03.554Z,98132.38
2018-11-06T05:00:31.749Z,98136.70
2018-11-06T05:03:00.035Z,98138.38
2018-11-06T05:05:28.097Z,98131.30
2018-11-06T05:07:56.161Z,98128.66
2018-11-06T05:10:24.229Z,98129.61
2018-11-06T05:12:52.335Z,98128.28
2018-11-06T05:15:20.414Z,98136.20
2018-11-06T05:17:48.489Z,98128.28
2018-11-06T05:20:17.563Z,98119.05
2018-11-06T05:22:46.291Z,98121.57
2018-11-06T05:25:14.815Z,98126.84
2018-11-06T05:27:42.808Z,98125.91
2018-11-06T05:30:11.854Z,98116.80
2018-11-06T05:32:41.212Z,98117.27
2018-11-06T05:35:10.014Z,98113.66
2018-11-06T05:37:38.344Z,98111.52
2018-11-06T05:40:17.954Z,98110.55
2018-11-06T05:42:46.061Z,98105.65
2018-11-06T05:45:14.182Z,98105.27
2018-11-06T05:47:42.314Z,98111.87
2018-11-06T05:50:10.392Z,98105.65
2018-11-06T05:52:38.492Z,98103.48
2018-11-06T05:55:06.660Z,98108.28
2018-11-06T05:57:34.746Z,98104.33
2018-11-06T06:00:02.814Z,98098.93
2018-11-06T06:02:30.882Z,98109.10
2018-11-06T06:04:58.985Z,98115.36
2018-11-06T06:07:27.060Z,98118.34
2018-11-06T06:09:55.151Z,98108.76
2018-11-06T06:12:24.145Z,98113.56
2018-11-06T06:14:52.245Z,98111.87
2018-11-06T06:17:20.390Z,98120.50
2018-11-06T06:19:48.364Z,98120.50
2018-11-06T06:22:16.454Z,98113.06
2018-11-06T06:24:44.523Z,98115.70
2018-11-06T06:27:12.592Z,98117.52
2018-11-06T06:29:40.730Z,98114.76
2018-11-06T06:32:08.986Z,98113.44
2018-11-06T06:34:37.147Z,98116.08
2018-11-06T06:37:05.935Z,98124.33
2018-11-06T06:39:34.044Z,98114.76
2018-11-06T06:42:02.109Z,98117.27
2018-11-06T06:44:30.169Z,98114.12
2018-11-06T06:46:58.245Z,98124.59
2018-11-06T06:49:26.389Z,98125.40
2018-11-06T06:51:54.460Z,98132.13
2018-11-06T06:54:22.747Z,98138.25
2018-11-06T06:56:50.741Z,98141.73
2018-11-06T06:59:18.906Z,98144.25
2018-11-06T07:01:47.085Z,98137.66
2018-11-06T07:04:16.159Z,98139.31
2018-11-06T07:06:44.256Z,98149.39
2018-11-06T07:09:12.347Z,98149.74
2018-11-06T07:11:40.464Z,98156.34
2018-11-06T07:14:08.538Z,98168.59
2018-11-06T07:16:36.617Z,98176.85
2018-11-06T07:19:04.725Z,98182.47
2018-11-06T07:21:32.804Z,98182.26
2018-11-06T07:24:00.953Z,98180.09
2018-11-06T07:26:29.526Z,98183.45
2018-11-06T07:28:57.723Z,98184.77
2018-11-06T07:31:26.165Z,98180.09
2018-11-06T07:33:54.263Z,98184.65
2018-11-06T07:36:22.452Z,98179.97
2018-11-06T07:38:50.529Z,98186.91
2018-11-06T07:41:18.713Z,98189.17
2018-11-06T07:43:46.817Z,98191.81
2018-11-06T07:46:15.014Z,98186.28
2018-11-06T07:48:43.086Z,98193.00
2018-11-06T07:51:11.201Z,98193.34
2018-11-06T07:53:39.277Z,98196.11
2018-11-06T07:56:07.368Z,98189.72
2018-11-06T07:58:35.424Z,98193.43
2018-11-06T08:01:03.513Z,98195.37
2018-11-06T08:03:31.572Z,98187.33
2018-11-06T08:05:59.658Z,98190.56
2018-11-06T08:08:27.728Z,98185.78
2018-11-06T08:10:55.813Z,98193.20
2018-11-06T08:13:23.923Z,98192.98
2018-11-06T08:15:51.978Z,98201.25
2018-11-06T08:18:20.029Z,98206.73
2018-11-06T08:20:48.162Z,98212.40
2018-11-06T08:23:16.234Z,98207.97
2018-11-06T08:25:44.305Z,98213.81
2018-11-06T08:28:12.485Z,98215.38
2018-11-06T08:30:40.648Z,98215.50
2018-11-06T08:33:08.649Z,98209.50
2018-11-06T08:35:36.726Z,98204.61
2018-11-06T08:38:05.918Z,98206.19
2018-11-06T08:40:33.998Z,98205.59
2018-11-06T08:43:02.101Z,98208.58
2018-11-06T08:45:30.158Z,98187.80
2018-11-06T08:47:58.261Z,98194.28
2018-11-06T08:50:26.286Z,98189.63
2018-11-06T08:52:54.357Z,98190.23
2018-11-06T08:55:22.445Z,98178.11
2018-11-06T08:57:50.514Z,98177.25
2018-11-06T09:00:19.308Z,98182.31
2018-11-06T09:02:48.331Z,98183.51
2018-11-06T09:05:17.065Z,98184.70
2018-11-06T09:07:45.288Z,98189.85
2018-11-06T09:10:14.250Z,98203.30
2018-11-06T09:12:42.378Z,98199.34
2018-11-06T09:15:11.906Z,98197.27
2018-11-06T09:17:40.241Z,98189.97
2018-11-06T09:20:10.956Z,98192.60
2018-11-06T09:22:39.407Z,98190.55
2018-11-06T09:25:08.841Z,98186.84
2018-11-06T09:27:36.935Z,98185.73
2018-11-06T09:30:05.588Z,98183.81
2018-11-06T09:32:33.663Z,98185.72
2018-11-06T09:35:01.785Z,98189.89
2018-11-06T09:37:29.807Z,98190.74
2018-11-06T09:39:57.926Z,98201.91
2018-11-06T09:42:26.021Z,98204.41
2018-11-06T09:44:54.119Z,98200.70
2018-11-06T09:47:22.137Z,98192.14
2018-11-06T09:49:50.202Z,98192.38
2018-11-06T09:52:18.349Z,98193.45
2018-11-06T09:54:46.397Z,98190.67
2018-11-06T09:57:14.454Z,98193.56
2018-11-06T09:59:42.522Z,98193.43
2018-11-06T10:02:10.623Z,98195.47
2018-11-06T10:04:38.725Z,98195.81
2018-11-06T10:07:07.297Z,98191.72
2018-11-06T10:09:35.165Z,98195.92
2018-11-06T10:12:03.226Z,98194.47
2018-11-06T10:14:31.294Z,98192.17
2018-11-06T10:16:59.376Z,98181.13
2018-11-06T10:19:27.455Z,98183.16
2018-11-06T10:21:55.525Z,98180.02
2018-11-06T10:24:23.610Z,98183.88
2018-11-06T10:26:51.693Z,98194.66
2018-11-06T10:29:19.811Z,98191.04
2018-11-06T10:31:47.887Z,98198.02
2018-11-06T10:34:15.966Z,98195.72
2018-11-06T10:36:44.168Z,98197.28
2018-11-06T10:39:13.623Z,98194.98
2018-11-06T10:41:41.719Z,98188.75
2018-11-06T10:44:09.827Z,98195.09
2018-11-06T10:46:38.185Z,98182.34
2018-11-06T10:49:06.718Z,98183.06
2018-11-06T10:51:34.873Z,98184.72
2018-11-06T10:54:02.909Z,98180.63
2018-11-06T10:56:30.976Z,98181.75
2018-11-06T10:58:59.048Z,98184.97
2018-11-06T11:01:32.706Z,98184.47
2018-11-06T11:04:06.123Z,98186.50
2018-11-06T11:06:34.160Z,98179.77
2018-11-06T11:09:02.265Z,98171.70
2018-11-06T11:11:30.461Z,98167.12
2018-11-06T11:13:58.669Z,98163.86
2018-11-06T11:16:26.938Z,98156.64
2018-11-06T11:18:55.114Z,98140.64
2018-11-06T11:21:23.205Z,98142.17
2018-11-06T11:23:51.303Z,98137.25
2018-11-06T11:26:19.571Z,98123.05
2018-11-06T11:28:47.665Z,98126.40
2018-11-06T11:31:15.734Z,98120.50
2018-11-06T11:33:43.848Z,98118.91
2018-11-06T11:36:11.972Z,98118.16
2018-11-06T11:38:40.142Z,98120.19
2018-11-06T11:41:08.229Z,98119.07
2018-11-06T11:43:36.340Z,98115.33
2018-11-06T11:46:04.534Z,98114.08
2018-11-06T11:48:32.655Z,98121.41
2018-11-06T11:51:00.822Z,98108.03
2018-11-06T11:53:29.075Z,98108.27
2018-11-06T11:55:57.249Z,98105.83
2018-11-06T11:58:25.351Z,98102.56
2018-11-06T12:00:53.442Z,98085.22
2018-11-06T12:03:21.625Z,98081.48
2018-11-06T12:05:49.689Z,98080.22
2018-11-06T12:08:17.762Z,98073.50
2018-11-06T12:10:45.851Z,98075.02
2018-11-06T12:13:13.933Z,98066.94
2018-11-06T12:15:42.020Z,98067.30
2018-11-06T12:18:10.126Z,98070.29
2018-11-06T12:20:38.178Z,98066.66
2018-11-06T12:23:06.301Z,98065.23
2018-11-06T12:25:34.538Z,98065.90
2018-11-06T12:28:02.541Z,98052.47
2018-11-06T12:30:30.791Z,98064.22
2018-11-06T12:32:58.954Z,98058.41
2018-11-06T12:35:27.051Z,98057.46
2018-11-06T12:37:55.763Z,98059.97
2018-11-06T12:40:23.852Z,98062.95
2018-11-06T12:42:51.981Z,98060.16
2018-11-06T12:45:20.023Z,98055.71
2018-11-06T12:47:48.107Z,98053.62
2018-11-06T12:50:16.375Z,98058.64
2018-11-06T12:52:44.417Z,98057.55
2018-11-06T12:55:14.738Z,98056.92
2018-11-06T12:57:42.833Z,98064.22
2018-11-06T13:00:14.384Z,98056.83
2018-11-06T13:02:42.605Z,98052.61
2018-11-06T13:05:10.926Z,98048.83
2018-11-06T13:07:40.229Z,98051.89
2018-11-06T13:10:08.758Z,98044.51
2018-11-06T13:12:36.898Z,98040.95
2018-11-06T13:15:05.755Z,98025.95
2018-11-06T13:17:33.897Z,98024.36
2018-11-06T13:20:02.205Z,98020.29
2018-11-06T13:22:30.331Z,98019.52
2018-11-06T13:24:58.950Z,98019.11
2018-11-06T13:27:27.014Z,98013.52
2018-11-06T13:29:55.263Z,98016.09
2018-11-06T13:32:23.652Z,98003.77
2018-11-06T13:34:51.930Z,98011.64
2018-11-06T13:37:20.277Z,98005.90
2018-11-06T13:39:48.628Z,98007.30
2018-11-06T13:42:16.709Z,98000.70
2018-11-06T13:44:44.986Z,98007.25
2018-11-06T13:47:12.967Z,98004.63
2018-11-06T13:49:41.194Z,97994.88
2018-11-06T13:52:09.523Z,97990.59
2018-11-06T13:54:37.678Z,97989.00
2018-11-06T13:57:05.875Z,97988.22
2018-11-06T13:59:34.037Z,97988.73
2018-11-06T14:02:02.201Z,97978.34
2018-11-06T14:04:30.300Z,97977.23
2018-11-06T14:06:58.460Z,97971.47
2018-11-06T14:09:26.510Z,97975.63
2018-11-06T14:11:54.622Z,97982.47
2018-11-06T14:14:22.736Z,97983.98
2018-11-06T14:16:50.867Z,97987.69
2018-11-06T14:19:18.963Z,97994.86
2018-11-06T14:21:47.049Z,97997.94
2018-11-06T14:24:15.168Z,97994.47
2018-11-06T14:26:43.234Z,97998.88
2018-11-06T14:29:11.406Z,98004.69
2018-11-06T14:31:39.458Z,98002.57
2018-11-06T14:34:07.535Z,98004.11
2018-11-06T14:36:35.601Z,98006.30
2018-11-06T14:39:06.778Z,98000.05
2018-11-06T14:41:35.017Z,97997.78
2018-11-06T14:44:03.074Z,98003.84
2018-11-06T14:46:31.341Z,98007.36
2018-11-06T14:48:59.517Z,98005.93
2018-11-06T14:51:27.501Z,98019.08
2018-11-06T14:53:55.599Z,98014.18
2018-11-06T14:56:23.725Z,98010.21
2018-11-06T14:58:51.913Z,98018.59
2018-11-06T15:01:20.100Z,98021.78
2018-11-06T15:03:48.270Z,98020.50
2018-11-06T15:06:16.455Z,98019.55
2018-11-06T15:08:44.541Z,98015.09
2018-11-06T15:11:12.621Z,98022.59
2018-11-06T15:13:40.711Z,98015.31
2018-11-06T15:16:09.082Z,98017.17
2018-11-06T15:18:37.151Z,98020.36
2018-11-06T15:21:05.808Z,98015.25
2018-11-06T15:23:33.909Z,98016.74
2018-11-06T15:26:02.140Z,98017.60
2018-11-06T15:28:30.208Z,98020.46
2018-11-06T15:30:58.302Z,98015.47
2018-11-06T15:33:26.515Z,98012.33
2018-11-06T15:35:54.707Z,98011.20
2018-11-06T15:38:22.789Z,98016.36
2018-11-06T15:40:51.019Z,98011.56
2018-11-06T15:43:18.969Z,98015.39
2018-11-06T15:45:47.071Z,98005.73
2018-11-06T15:48:15.158Z,98010.24
2018-11-06T15:50:43.245Z,98006.42
2018-11-06T15:53:11.343Z,98011.25
2018-11-06T15:55:39.421Z,98013.91
2018-11-06T15:58:07.490Z,98007.59
2018-11-06T16:00:35.571Z,98012.59
2018-11-06T16:03:03.693Z,98017.26
2018-11-06T16:05:31.836Z,98018.10
2018-11-06T16:07:59.950Z,98021.93
2018-11-06T16:10:27.992Z,98024.79
2018-11-06T16:12:56.078Z,98022.00
2018-11-06T16:15:24.308Z,98020.52
2018-11-06T16:20:25.762Z,98023.54
2018-11-06T16:22:53.858Z,98033.02
2018-11-06T16:25:21.951Z,98026.08
2018-11-06T16:27:50.067Z,98027.25
2018-11-06T16:30:19.531Z,98029.09
2018-11-06T16:32:47.648Z,98035.43
2018-11-06T16:35:17.081Z,98035.75
2018-11-06T16:37:45.985Z,98037.13
2018-11-06T16:40:15.547Z,98029.63
2018-11-06T16:42:44.246Z,98043.13
2018-11-06T16:45:14.595Z,98043.45
2018-11-06T16:47:43.757Z,98048.45
2018-11-06T16:50:13.218Z,98062.11
2018-11-06T16:52:41.761Z,98080.58
2018-11-06T16:55:10.682Z,98085.25
2018-11-06T16:57:40.030Z,98088.44
2018-11-06T17:00:10.445Z,98088.77
2018-11-06T17:02:38.531Z,98102.23
2018-11-06T17:05:07.181Z,98098.77
2018-11-06T17:07:35.253Z,98097.95
2018-11-06T17:10:03.371Z,98093.16
2018-11-06T17:12:31.445Z,98091.66
2018-11-06T17:14:59.546Z,98095.17
2018-11-06T17:17:27.747Z,98095.85
2018-11-06T17:19:55.770Z,98096.17
2018-11-06T17:22:23.868Z,98103.52
2018-11-06T17:24:52.044Z,98106.21
2018-11-06T17:27:20.167Z,98113.67
2018-11-06T17:29:49.003Z,98114.75
2018-11-06T17:32:17.097Z,98117.73
2018-11-06T17:34:45.247Z,98119.10
2018-11-06T17:37:13.410Z,98109.63
2018-11-06T17:39:41.660Z,98125.59
2018-11-06T17:42:09.813Z,98133.91
2018-11-06T17:44:37.982Z,98132.94
2018-11-06T17:47:06.144Z,98135.92
2018-11-06T17:49:34.269Z,98125.27
2018-11-06T17:52:02.408Z,98132.09
2018-11-06T17:54:30.486Z,98140.60
2018-11-06T17:56:58.629Z,98138.42
2018-11-06T17:59:26.761Z,98138.75
2018-11-06T18:01:54.870Z,98136.77
2018-11-06T18:04:23.079Z,98136.77
2018-11-06T18:06:51.982Z,98128.95
2018-11-06T18:09:20.100Z,98134.43
2018-11-06T18:11:48.206Z,98139.76
2018-11-06T18:14:16.265Z,98137.42
2018-11-06T18:16:44.463Z,98148.23
2018-11-06T18:19:12.553Z,98153.23
2018-11-06T18:21:40.673Z,98150.24
2018-11-06T18:24:08.777Z,98150.89
2018-11-06T18:26:36.840Z,98158.72
2018-11-06T18:29:05.240Z,98165.86
2018-11-06T18:31:33.398Z,98170.86
2018-11-06T18:34:01.462Z,98173.16
2018-11-06T18:36:29.546Z,98167.67
2018-11-06T18:38:57.654Z,98172.52
2018-11-06T18:41:25.789Z,98166.51
2018-11-06T18:43:54.597Z,98169.00
2018-11-06T18:46:22.816Z,98172.52
2018-11-06T18:48:51.000Z,98177.67
2018-11-06T18:51:19.122Z,98178.84
2018-11-06T18:53:47.399Z,98174.34
2018-11-06T18:56:15.474Z,98171.19
2018-11-06T18:58:43.646Z,98171.38
2018-11-06T19:01:11.724Z,98176.03
2018-11-06T19:03:39.801Z,98174.57
2018-11-06T19:06:07.902Z,98180.42
2018-11-06T19:08:36.058Z,98185.06
2018-11-06T19:11:04.159Z,98180.58
2018-11-06T19:13:32.256Z,98181.75
2018-11-06T19:16:00.342Z,98178.28
2018-11-06T19:18:28.452Z,98184.45
2018-11-06T19:20:56.665Z,98192.97
2018-11-06T19:23:24.792Z,98192.80
2018-11-06T19:25:52.903Z,98198.33
2018-11-06T19:28:21.046Z,98202.48
2018-11-06T19:30:49.264Z,98199.69
2018-11-06T19:33:17.352Z,98199.01
2018-11-06T19:35:45.566Z,98205.38
2018-11-06T19:38:13.694Z,98200.05
2018-11-06T19:40:41.967Z,98193.06
2018-11-06T19:43:09.950Z,98202.06
2018-11-06T19:45:38.008Z,98193.91
2018-11-06T19:48:06.121Z,98199.23
2018-11-06T19:50:34.318Z,98193.06
2018-11-06T19:53:02.462Z,98193.91
2018-11-06T19:55:30.701Z,98185.75
2018-11-06T19:57:59.405Z,98184.25
2018-11-06T20:00:27.561Z,98185.94
2018-11-06T20:02:55.632Z,98186.76
2018-11-06T20:05:23.886Z,98183.08
2018-11-06T20:07:52.568Z,98186.59
2018-11-06T20:10:22.191Z,98188.77
2018-11-06T20:12:51.411Z,98189.26
2018-11-06T20:15:19.661Z,98182.77
2018-11-06T20:17:47.907Z,98181.91
2018-11-06T20:20:18.564Z,98188.61
2018-11-06T20:22:46.682Z,98188.94
2018-11-06T20:25:14.829Z,98185.09
2018-11-06T20:27:43.295Z,98185.94
2018-11-06T20:30:13.507Z,98192.77
2018-11-06T20:32:41.884Z,98193.09
2018-11-06T20:35:10.893Z,98194.59
2018-11-06T20:37:40.794Z,98194.27
2018-11-06T20:40:11.017Z,98193.06
2018-11-06T20:42:39.602Z,98198.06
2018-11-06T20:45:08.832Z,98197.22
2018-11-06T20:47:37.038Z,98192.90
2018-11-06T20:50:07.958Z,98197.55
2018-11-06T20:52:36.030Z,98202.03
2018-11-06T20:55:04.318Z,98193.39
2018-11-06T20:57:32.472Z,98199.69
2018-11-06T21:00:00.693Z,98200.34
2018-11-06T21:02:28.897Z,98205.34
2018-11-06T21:04:57.018Z,98212.49
2018-11-06T21:07:25.109Z,98220.16
2018-11-06T21:09:53.219Z,98225.29
2018-11-06T21:12:21.294Z,98228.11
2018-11-06T21:14:49.396Z,98227.79
2018-11-06T21:17:17.461Z,98224.44
2018-11-06T21:19:45.588Z,98222.78
2018-11-06T21:22:13.689Z,98216.28
2018-11-06T21:24:42.000Z,98218.27
2018-11-06T21:27:10.222Z,98229.56
2018-11-06T21:29:38.082Z,98228.88
2018-11-06T21:32:07.282Z,98233.88
2018-11-06T21:34:35.402Z,98234.53
2018-11-06T21:37:03.564Z,98244.50
2018-11-06T21:39:31.660Z,98245.50
2018-11-06T21:41:59.890Z,98241.30
2018-11-06T21:44:27.993Z,98245.14
2018-11-06T21:46:56.162Z,98247.92
2018-11-06T21:49:24.290Z,98242.76
2018-11-06T21:51:52.427Z,98242.91
2018-11-06T21:54:20.473Z,98250.73
2018-11-06T21:56:48.583Z,98245.73
2018-11-06T21:59:16.711Z,98241.37
2018-11-06T22:01:44.821Z,98250.85
2018-11-06T22:04:13.113Z,98249.84
2018-11-06T22:06:41.220Z,98244.28
2018-11-06T22:09:10.384Z,98251.09
2018-11-06T22:11:38.476Z,98258.91
2018-11-06T22:14:06.781Z,98256.89
2018-11-06T22:16:34.929Z,98255.36
2018-11-06T22:19:03.074Z,98259.50
2018-11-06T22:21:31.170Z,98249.66
2018-11-06T22:23:59.274Z,98249.33
2018-11-06T22:26:27.518Z,98248.31
2018-11-06T22:28:55.710Z,98254.77
2018-11-06T22:31:23.961Z,98250.08
2018-11-06T22:33:52.123Z,98253.42
2018-11-06T22:36:20.213Z,98255.39
2018-11-06T22:38:48.318Z,98249.38
2018-11-06T22:41:16.411Z,98245.70
2018-11-06T22:43:44.489Z,98245.86
2018-11-06T22:46:12.701Z,98248.31
2018-11-06T22:48:41.137Z,98237.98
2018-11-06T22:51:09.198Z,98239.47
2018-11-06T22:53:37.342Z,98229.95
2018-11-06T22:56:05.509Z,98227.93
2018-11-06T22:58:33.575Z,98233.08
2018-11-06T23:01:07.105Z,98231.06
2018-11-06T23:03:35.174Z,98238.02
2018-11-06T23:06:03.474Z,98239.66
2018-11-06T23:08:31.488Z,98238.48
2018-11-06T23:10:59.591Z,98230.78
2018-11-06T23:13:27.710Z,98225.62
2018-11-06T23:15:55.845Z,98233.75
2018-11-06T23:18:23.942Z,98237.53
2018-11-06T23:20:52.006Z,98246.95
2018-11-06T23:23:20.168Z,98253.92
2018-11-06T23:25:48.320Z,98254.22
2018-11-06T23:28:16.426Z,98252.20
2018-11-06T23:30:44.485Z,98251.51
2018-11-06T23:33:12.614Z,98240.70
2018-11-06T23:35:40.829Z,98243.51
2018-11-06T23:38:08.879Z,98237.65
2018-11-06T23:40:37.977Z,98240.79
2018-11-06T23:43:06.043Z,98236.11
2018-11-06T23:45:34.111Z,98229.92
2018-11-06T23:48:02.332Z,98231.73
2018-11-06T23:50:30.454Z,98233.73
2018-11-06T23:52:58.538Z,98234.00
2018-11-06T23:55:26.618Z,98244.94
2018-11-06T23:57:54.689Z,98249.08
